Time;durP1;ratioP1;P1;durP2;ratioP2;P2;SDS_P1;SDS_P2;PMS_P1;PMS_P2;Temp;Humidity;BMP_temperature;BMP_pressure;BME280_temperature;BME280_humidity;BME280_pressure;Samples;Min_cycle;Max_cycle;Signal;HPM_P1;HPM_P2
2023/04/08 00:02:04;;;;;;;5.10;4.33;;;10.00;99.90;;;;;;5111362;28;20264;-80
2023/04/08 00:04:31;;;;;;;5.07;3.83;;;10.10;99.90;;;;;;5111481;28;20208;-79
2023/04/08 00:07:00;;;;;;;5.50;4.43;;;10.00;99.90;;;;;;5111415;28;20201;-81
2023/04/08 00:09:26;;;;;;;4.63;3.60;;;10.00;99.90;;;;;;5110699;28;20236;-81
2023/04/08 00:11:53;;;;;;;5.17;4.27;;;10.00;99.90;;;;;;5110782;28;20812;-81
2023/04/08 00:14:20;;;;;;;7.53;4.50;;;9.90;99.90;;;;;;5110789;28;20232;-79
2023/04/08 00:16:47;;;;;;;4.97;3.93;;;9.80;99.90;;;;;;5111057;28;20243;-81
2023/04/08 00:19:14;;;;;;;6.50;3.70;;;9.80;99.90;;;;;;5110662;28;20690;-79
2023/04/08 00:21:41;;;;;;;4.97;4.20;;;9.80;99.90;;;;;;5111315;28;20263;-81
2023/04/08 00:24:09;;;;;;;6.03;3.47;;;9.80;99.90;;;;;;5110924;28;20248;-81
2023/04/08 00:26:36;;;;;;;5.33;3.80;;;9.70;99.90;;;;;;5111907;28;20584;-82
2023/04/08 00:29:03;;;;;;;4.67;3.43;;;9.70;99.90;;;;;;5111134;28;20235;-72
2023/04/08 00:31:30;;;;;;;4.93;3.57;;;9.70;99.90;;;;;;5109704;28;20236;-78
2023/04/08 00:33:58;;;;;;;4.53;4.07;;;9.70;99.90;;;;;;5110639;28;20204;-77
2023/04/08 00:36:26;;;;;;;7.93;3.80;;;9.70;99.90;;;;;;5110297;28;20284;-76
2023/04/08 00:38:53;;;;;;;9.10;4.07;;;9.70;99.90;;;;;;5110848;28;20295;-78
2023/04/08 00:41:21;;;;;;;6.27;4.57;;;9.70;99.90;;;;;;5110501;28;20317;-78
2023/04/08 00:43:48;;;;;;;5.50;3.80;;;9.60;99.90;;;;;;5110871;28;20232;-78
2023/04/08 00:46:15;;;;;;;6.00;3.23;;;9.50;99.90;;;;;;5110376;28;20236;-77
2023/04/08 00:48:42;;;;;;;5.93;4.47;;;9.60;99.90;;;;;;5110821;28;20201;-76
2023/04/08 00:51:10;;;;;;;4.07;3.20;;;9.60;99.90;;;;;;5112200;28;20243;-77
2023/04/08 00:53:36;;;;;;;6.67;3.30;;;9.50;99.90;;;;;;5112420;28;20207;-78
2023/04/08 00:56:04;;;;;;;6.73;4.27;;;9.60;99.90;;;;;;5113732;28;20221;-69
2023/04/08 00:58:32;;;;;;;6.57;3.43;;;9.60;99.90;;;;;;5114105;28;20205;-74
2023/04/08 01:01:07;;;;;;;3.80;3.40;;;9.70;99.90;;;;;;5114696;28;20288;-75
2023/04/08 01:03:42;;;;;;;7.00;3.50;;;9.40;99.90;;;;;;5114286;28;20236;-69
2023/04/08 01:06:17;;;;;;;3.73;3.03;;;9.40;99.90;;;;;;5114070;28;20663;-78
2023/04/08 01:08:45;;;;;;;4.63;4.10;;;9.50;99.90;;;;;;5114116;28;20678;-78
2023/04/08 01:11:14;;;;;;;5.87;4.20;;;9.40;99.90;;;;;;5113686;28;20244;-75
2023/04/08 01:13:45;;;;;;;3.60;3.30;;;9.50;99.90;;;;;;5114418;28;20249;-78
2023/04/08 01:16:15;;;;;;;3.70;3.00;;;9.50;99.90;;;;;;5113979;28;20224;-82
2023/04/08 01:18:44;;;;;;;5.83;3.90;;;9.60;99.90;;;;;;5114265;28;20196;-77
2023/04/08 01:21:12;;;;;;;5.13;3.70;;;9.50;99.90;;;;;;5113551;28;20747;-79
2023/04/08 01:23:46;;;;;;;5.83;3.97;;;9.40;99.90;;;;;;5114268;28;20235;-79
2023/04/08 01:26:22;;;;;;;7.60;3.73;;;9.40;99.90;;;;;;5113611;28;20251;-80
2023/04/08 01:28:50;;;;;;;4.17;2.93;;;9.40;99.90;;;;;;5113949;28;20228;-79
2023/04/08 01:31:18;;;;;;;4.73;3.23;;;9.20;99.90;;;;;;5113515;28;20248;-78
2023/04/08 01:33:45;;;;;;;4.30;3.47;;;9.30;99.90;;;;;;5113387;28;20237;-76
2023/04/08 01:36:12;;;;;;;5.00;2.90;;;9.40;99.90;;;;;;5111606;28;20229;-78
2023/04/08 01:38:39;;;;;;;4.93;3.73;;;9.20;99.90;;;;;;5113751;28;20236;-78
2023/04/08 01:41:08;;;;;;;4.40;3.47;;;9.10;99.90;;;;;;5112824;28;20652;-68
2023/04/08 01:43:39;;;;;;;4.60;3.40;;;9.00;99.90;;;;;;5113334;28;20324;-76
2023/04/08 01:46:08;;;;;;;3.93;2.90;;;9.10;99.90;;;;;;5113140;28;20251;-68
2023/04/08 01:48:35;;;;;;;2.90;2.70;;;9.10;99.90;;;;;;5113965;28;20213;-78
2023/04/08 01:51:05;;;;;;;5.37;2.90;;;8.80;99.90;;;;;;5113977;28;20225;-79
2023/04/08 01:53:32;;;;;;;3.30;3.00;;;8.80;99.90;;;;;;5113844;28;20259;-78
2023/04/08 01:56:05;;;;;;;3.77;2.67;;;8.80;99.90;;;;;;5113625;28;20201;-78
2023/04/08 01:58:40;;;;;;;5.37;3.23;;;8.90;99.90;;;;;;5113487;28;20648;-79
2023/04/08 02:01:18;;;;;;;4.47;3.87;;;9.00;99.90;;;;;;5112979;28;20246;-76
2023/04/08 02:03:46;;;;;;;3.60;2.10;;;9.00;99.90;;;;;;5112342;28;20323;-77
2023/04/08 02:06:13;;;;;;;2.97;2.70;;;9.00;99.90;;;;;;5112853;28;20243;-75
2023/04/08 02:08:40;;;;;;;7.03;3.07;;;8.90;99.90;;;;;;5112945;28;20232;-78
2023/04/08 02:11:07;;;;;;;2.63;2.40;;;9.10;99.90;;;;;;5112778;28;20683;-79
2023/04/08 02:13:34;;;;;;;2.27;2.03;;;8.90;99.90;;;;;;5113267;28;20228;-77
2023/04/08 02:16:08;;;;;;;4.13;2.57;;;8.90;99.90;;;;;;5113393;28;20201;-78
2023/04/08 02:18:37;;;;;;;3.70;2.40;;;9.00;99.90;;;;;;5113105;28;20228;-73
2023/04/08 02:21:10;;;;;;;4.00;2.50;;;8.80;99.90;;;;;;5112908;28;20239;-76
2023/04/08 02:23:39;;;;;;;2.97;2.57;;;8.80;99.90;;;;;;5111989;28;20271;-72
2023/04/08 02:26:10;;;;;;;5.03;3.03;;;8.80;99.90;;;;;;5112775;28;20292;-70
2023/04/08 02:28:39;;;;;;;3.37;2.40;;;8.80;99.90;;;;;;5113022;28;20232;-78
2023/04/08 02:31:12;;;;;;;3.80;3.40;;;8.90;99.90;;;;;;5112610;28;20197;-73
2023/04/08 02:33:40;;;;;;;4.00;3.30;;;9.00;99.90;;;;;;5112564;28;20241;-77
2023/04/08 02:36:07;;;;;;;3.63;2.83;;;9.00;99.90;;;;;;5112310;28;20201;-76
2023/04/08 02:38:34;;;;;;;2.37;2.10;;;9.10;99.90;;;;;;5112500;28;20201;-78
2023/04/08 02:41:01;;;;;;;2.93;2.70;;;9.10;99.90;;;;;;5112841;28;20257;-76
2023/04/08 02:43:31;;;;;;;3.60;3.30;;;8.90;99.90;;;;;;5112087;28;20323;-77
2023/04/08 02:45:59;;;;;;;3.00;2.40;;;8.90;99.90;;;;;;5112198;28;20196;-76
2023/04/08 02:48:27;;;;;;;3.57;3.07;;;8.90;99.90;;;;;;5112162;28;20212;-77
2023/04/08 02:50:54;;;;;;;3.37;3.03;;;8.90;99.90;;;;;;5112427;28;20228;-82
2023/04/08 02:53:23;;;;;;;2.80;2.53;;;8.70;99.90;;;;;;5111875;28;20634;-82
2023/04/08 02:55:50;;;;;;;3.60;2.97;;;8.80;99.90;;;;;;5112443;28;20232;-81
2023/04/08 02:58:17;;;;;;;3.10;2.80;;;8.80;99.90;;;;;;5111704;28;20236;-81
2023/04/08 03:00:44;;;;;;;3.40;2.60;;;8.70;99.90;;;;;;5112163;28;20201;-78
2023/04/08 03:03:11;;;;;;;4.70;2.97;;;8.80;99.90;;;;;;5111919;28;20243;-78
2023/04/08 03:05:39;;;;;;;3.20;2.07;;;8.70;99.90;;;;;;5112224;28;20232;-78
2023/04/08 03:08:06;;;;;;;3.50;2.67;;;8.70;99.90;;;;;;5111512;28;20205;-69
2023/04/08 03:10:33;;;;;;;6.13;3.63;;;8.60;99.90;;;;;;5111744;28;20586;-68
2023/04/08 03:13:00;;;;;;;4.13;2.80;;;8.70;99.90;;;;;;5112166;28;20228;-78
2023/04/08 03:15:27;;;;;;;9.77;3.53;;;8.60;99.90;;;;;;5110251;28;20288;-79
2023/04/08 03:17:54;;;;;;;3.63;2.77;;;8.60;99.90;;;;;;5111711;28;20317;-77
2023/04/08 03:20:21;;;;;;;7.30;3.20;;;8.50;99.90;;;;;;5111209;28;20620;-81
2023/04/08 03:22:49;;;;;;;3.83;2.87;;;8.50;99.90;;;;;;5111858;28;20260;-88
2023/04/08 03:25:16;;;;;;;5.37;3.20;;;8.50;99.90;;;;;;5111619;28;20570;-74
2023/04/08 03:27:43;;;;;;;5.37;2.63;;;8.50;99.90;;;;;;5111638;28;20274;-78
2023/04/08 03:30:10;;;;;;;3.33;3.03;;;8.40;99.90;;;;;;5111231;28;20602;-75
2023/04/08 03:32:37;;;;;;;4.23;2.73;;;8.40;99.90;;;;;;5111682;28;20236;-74
2023/04/08 03:35:05;;;;;;;6.03;2.80;;;8.50;99.90;;;;;;5113296;28;20232;-83
2023/04/08 03:37:32;;;;;;;5.07;2.77;;;8.60;99.90;;;;;;5113382;28;20259;-84
2023/04/08 03:40:00;;;;;;;5.13;3.07;;;8.40;99.90;;;;;;5112276;28;20204;-82
2023/04/08 03:42:27;;;;;;;4.73;3.23;;;8.20;99.90;;;;;;5111835;28;20260;-86
2023/04/08 03:44:54;;;;;;;5.17;3.40;;;8.20;99.90;;;;;;5113135;28;20237;-85
2023/04/08 03:47:21;;;;;;;4.10;2.47;;;8.20;99.90;;;;;;5112485;28;20647;-86
2023/04/08 03:49:48;;;;;;;3.57;3.23;;;8.30;99.90;;;;;;5111791;28;20228;-83
2023/04/08 03:52:15;;;;;;;2.93;2.37;;;8.20;99.90;;;;;;5111013;28;20247;-79
2023/04/08 03:54:41;;;;;;;5.53;3.57;;;8.20;99.90;;;;;;5111396;28;20606;-80
2023/04/08 03:57:10;;;;;;;4.30;3.17;;;8.20;99.90;;;;;;5111121;28;20201;-79
2023/04/08 03:59:38;;;;;;;3.47;3.07;;;8.20;99.90;;;;;;5111660;28;20205;-80
2023/04/08 04:02:05;;;;;;;5.30;3.67;;;8.20;99.90;;;;;;5111310;28;20197;-80
2023/04/08 04:04:32;;;;;;;6.57;3.17;;;8.20;99.90;;;;;;5111658;28;20596;-81
2023/04/08 04:06:59;;;;;;;3.70;3.33;;;8.10;99.90;;;;;;5111700;28;20203;-85
2023/04/08 04:09:26;;;;;;;5.07;2.60;;;8.00;99.90;;;;;;5111383;28;20272;-85
2023/04/08 04:11:53;;;;;;;3.93;3.03;;;8.00;99.90;;;;;;5111574;28;20240;-85
2023/04/08 04:14:21;;;;;;;4.43;2.97;;;8.00;99.90;;;;;;5111370;28;20240;-81
2023/04/08 04:16:48;;;;;;;5.67;2.93;;;7.90;99.90;;;;;;5112922;28;20197;-85
2023/04/08 04:19:16;;;;;;;5.23;3.57;;;7.90;99.90;;;;;;5112133;28;20236;-86
2023/04/08 04:21:43;;;;;;;5.97;3.20;;;7.80;99.90;;;;;;5111765;28;20197;-87
2023/04/08 04:24:10;;;;;;;7.10;3.23;;;7.90;99.90;;;;;;5110675;28;20260;-82
2023/04/08 04:26:37;;;;;;;5.33;4.03;;;7.90;99.90;;;;;;5113930;28;20242;-84
2023/04/08 04:29:04;;;;;;;4.90;3.80;;;8.00;99.90;;;;;;5115294;28;20288;-76
2023/04/08 04:31:32;;;;;;;5.90;3.77;;;8.00;99.90;;;;;;5115198;28;20611;-77
2023/04/08 04:33:59;;;;;;;5.37;3.10;;;8.00;99.90;;;;;;5115180;28;20215;-79
2023/04/08 04:36:26;;;;;;;3.93;3.53;;;8.00;99.90;;;;;;5114495;28;20248;-82
2023/04/08 04:38:53;;;;;;;5.10;2.87;;;7.90;99.90;;;;;;5115117;28;20623;-77
2023/04/08 04:41:20;;;;;;;4.60;4.20;;;7.90;99.90;;;;;;5114792;28;20228;-82
2023/04/08 04:43:47;;;;;;;4.30;3.63;;;7.90;99.90;;;;;;5115291;28;20300;-83
2023/04/08 04:46:14;;;;;;;5.73;3.33;;;7.90;99.90;;;;;;5114787;28;20244;-84
2023/04/08 04:48:42;;;;;;;4.83;4.33;;;7.80;99.90;;;;;;5115619;28;20732;-84
2023/04/08 04:51:09;;;;;;;3.23;2.93;;;7.70;99.90;;;;;;5114979;28;20243;-84
2023/04/08 04:53:36;;;;;;;7.50;3.10;;;7.60;99.90;;;;;;5115096;28;20257;-84
2023/04/08 04:56:03;;;;;;;3.63;2.87;;;7.60;99.90;;;;;;5113994;28;20248;-75
2023/04/08 04:58:30;;;;;;;5.00;2.30;;;7.60;99.90;;;;;;5113846;28;20247;-83
2023/04/08 05:00:57;;;;;;;2.73;2.37;;;7.60;99.90;;;;;;5093799;28;20243;-76
2023/04/08 05:03:24;;;;;;;3.80;2.60;;;7.60;99.90;;;;;;5094039;28;20275;-83
2023/04/08 05:05:53;;;;;;;5.10;3.43;;;7.50;99.90;;;;;;5100188;28;20205;-83
2023/04/08 05:08:21;;;;;;;5.17;3.43;;;7.50;99.90;;;;;;5114551;28;20237;-85
2023/04/08 05:10:49;;;;;;;3.93;3.50;;;7.40;99.90;;;;;;5114555;28;20237;-84
2023/04/08 05:13:16;;;;;;;5.33;3.27;;;7.40;99.90;;;;;;5113804;28;20742;-83
2023/04/08 05:15:44;;;;;;;4.93;3.27;;;7.40;99.90;;;;;;5114586;28;20208;-84
2023/04/08 05:18:11;;;;;;;4.13;3.07;;;7.60;99.90;;;;;;5114372;28;20283;-85
2023/04/08 05:20:38;;;;;;;3.83;3.13;;;7.60;99.90;;;;;;5114593;28;20241;-84
2023/04/08 05:23:06;;;;;;;4.57;3.37;;;7.60;99.90;;;;;;5114616;28;20264;-84
2023/04/08 05:25:33;;;;;;;5.30;4.30;;;7.60;99.90;;;;;;5114728;28;20200;-85
2023/04/08 05:28:00;;;;;;;4.70;4.30;;;7.60;99.90;;;;;;5114361;28;20228;-80
2023/04/08 05:30:27;;;;;;;4.90;3.50;;;7.70;99.90;;;;;;5114389;28;20237;-84
2023/04/08 05:32:54;;;;;;;4.80;4.07;;;7.60;99.90;;;;;;5114287;28;20265;-82
2023/04/08 05:35:21;;;;;;;4.50;3.33;;;7.60;99.90;;;;;;5113929;28;20205;-81
2023/04/08 05:37:48;;;;;;;4.53;3.53;;;7.60;99.90;;;;;;5113277;28;20239;-86
2023/04/08 05:40:17;;;;;;;4.30;3.60;;;7.70;99.90;;;;;;5114122;28;20228;-86
2023/04/08 05:42:44;;;;;;;6.50;3.87;;;7.70;99.90;;;;;;5114026;28;20239;-69
2023/04/08 05:45:11;;;;;;;6.00;3.40;;;7.60;99.90;;;;;;5113491;28;20236;-74
2023/04/08 05:47:38;;;;;;;6.23;3.87;;;7.70;99.90;;;;;;5114005;28;20254;-80
2023/04/08 05:50:05;;;;;;;4.37;3.60;;;7.80;99.90;;;;;;5113914;28;20236;-71
2023/04/08 05:52:32;;;;;;;3.87;3.47;;;7.80;99.90;;;;;;5114597;28;20672;-79
2023/04/08 05:54:59;;;;;;;6.60;3.60;;;7.80;99.90;;;;;;5114127;28;20236;-71
2023/04/08 05:57:27;;;;;;;7.23;3.60;;;7.60;99.90;;;;;;5113865;28;20236;-86
2023/04/08 05:59:54;;;;;;;6.40;4.17;;;7.70;99.90;;;;;;5113981;28;20726;-77
2023/04/08 06:02:21;;;;;;;5.57;3.47;;;7.80;99.90;;;;;;5113798;28;20211;-78
2023/04/08 06:04:48;;;;;;;4.23;3.80;;;7.70;99.90;;;;;;5113379;28;20259;-81
2023/04/08 06:07:15;;;;;;;5.30;3.97;;;7.70;99.90;;;;;;5113162;28;20255;-81
2023/04/08 06:09:42;;;;;;;4.63;3.77;;;7.70;99.90;;;;;;5114188;28;20699;-86
2023/04/08 06:12:09;;;;;;;4.80;4.03;;;7.60;99.90;;;;;;5112842;28;20248;-87
2023/04/08 06:14:37;;;;;;;5.03;3.50;;;7.60;99.90;;;;;;5114027;28;20205;-79
2023/04/08 06:17:04;;;;;;;4.13;3.70;;;7.80;99.90;;;;;;5113610;28;20240;-86
2023/04/08 06:19:31;;;;;;;3.83;3.37;;;7.80;99.90;;;;;;5113984;28;20204;-84
2023/04/08 06:21:58;;;;;;;4.43;3.67;;;7.80;99.90;;;;;;5113149;28;20243;-86
2023/04/08 06:24:26;;;;;;;6.03;3.50;;;7.80;99.90;;;;;;5113320;28;20696;-86
2023/04/08 06:26:53;;;;;;;5.93;3.63;;;7.90;99.90;;;;;;5115313;28;20238;-88
2023/04/08 06:29:20;;;;;;;8.07;3.90;;;8.00;99.90;;;;;;5113646;28;20318;-85
2023/04/08 06:31:49;;;;;;;3.73;3.43;;;8.20;99.90;;;;;;5113262;28;20565;-83
2023/04/08 06:34:16;;;;;;;5.10;3.90;;;8.30;99.90;;;;;;5112748;28;20212;-84
2023/04/08 06:36:43;;;;;;;5.37;3.47;;;8.40;99.90;;;;;;5113108;28;20220;-81
2023/04/08 06:39:10;;;;;;;6.47;3.00;;;8.60;99.90;;;;;;5112624;28;20213;-87
2023/04/08 06:41:36;;;;;;;4.13;3.30;;;8.70;99.90;;;;;;5112660;27;20208;-88
2023/04/08 06:44:03;;;;;;;4.40;4.00;;;8.90;99.90;;;;;;5112333;28;20791;-83
2023/04/08 06:46:30;;;;;;;3.40;3.10;;;9.00;99.90;;;;;;5112969;28;20244;-80
2023/04/08 06:48:58;;;;;;;4.10;3.50;;;9.10;99.90;;;;;;5112176;28;20242;-70
2023/04/08 06:51:26;;;;;;;4.17;3.43;;;9.10;99.90;;;;;;5112004;28;20209;-79
2023/04/08 06:53:53;;;;;;;4.33;2.80;;;9.20;99.90;;;;;;5111310;28;20228;-77
2023/04/08 06:56:21;;;;;;;6.77;3.40;;;9.30;99.90;;;;;;5113433;28;20672;-88
2023/04/08 06:58:48;;;;;;;2.90;2.43;;;9.40;99.90;;;;;;5114293;28;20208;-85
2023/04/08 07:01:16;;;;;;;3.80;3.00;;;9.40;99.90;;;;;;5123704;28;20212;-75
2023/04/08 07:03:43;;;;;;;5.20;3.43;;;9.60;99.90;;;;;;5110268;28;20227;-81
2023/04/08 07:06:11;;;;;;;4.17;2.87;;;9.70;99.90;;;;;;5111922;28;20228;-85
2023/04/08 07:08:38;;;;;;;4.53;2.77;;;10.00;99.90;;;;;;5111902;28;20684;-80
2023/04/08 07:11:05;;;;;;;3.37;2.37;;;10.20;99.90;;;;;;5111649;28;20213;-79
2023/04/08 07:13:32;;;;;;;2.87;2.50;;;10.20;99.90;;;;;;5112113;28;20738;-76
2023/04/08 07:16:00;;;;;;;2.63;2.10;;;10.10;99.90;;;;;;5111441;28;20248;-75
2023/04/08 07:18:27;;;;;;;4.73;2.70;;;10.20;99.90;;;;;;5111788;28;20204;-79
2023/04/08 07:20:54;;;;;;;3.33;2.63;;;10.40;99.90;;;;;;5111522;28;20596;-80
2023/04/08 07:23:22;;;;;;;1.80;1.63;;;10.50;99.90;;;;;;5110757;28;20209;-80
2023/04/08 07:25:49;;;;;;;4.63;2.30;;;10.60;99.90;;;;;;5111581;28;20684;-79
2023/04/08 07:28:16;;;;;;;2.37;2.17;;;10.60;99.90;;;;;;5111472;28;20686;-80
2023/04/08 07:30:43;;;;;;;2.97;2.10;;;10.70;99.90;;;;;;5111583;28;20243;-80
2023/04/08 07:33:10;;;;;;;4.13;2.90;;;10.80;99.90;;;;;;5111209;28;20259;-79
2023/04/08 07:35:37;;;;;;;3.03;2.50;;;10.90;99.90;;;;;;5111605;28;20239;-74
2023/04/08 07:38:10;;;;;;;2.47;2.00;;;11.10;99.90;;;;;;5110986;28;20200;-80
2023/04/08 07:40:38;;;;;;;2.37;2.00;;;11.20;99.90;;;;;;5112108;28;20229;-76
2023/04/08 07:43:05;;;;;;;3.23;2.03;;;11.40;99.90;;;;;;5111427;28;20257;-78
2023/04/08 07:45:32;;;;;;;2.33;1.87;;;11.60;99.90;;;;;;5111505;28;20277;-77
2023/04/08 07:47:59;;;;;;;3.13;2.83;;;11.70;99.90;;;;;;5110996;28;20655;-81
2023/04/08 07:50:26;;;;;;;3.50;2.33;;;12.10;99.90;;;;;;5111607;28;20297;-79
2023/04/08 07:52:53;;;;;;;3.17;2.20;;;12.10;99.90;;;;;;5111210;28;20205;-77
2023/04/08 07:55:21;;;;;;;2.93;2.20;;;12.20;99.90;;;;;;5110700;28;20322;-75
2023/04/08 07:57:49;;;;;;;2.17;1.70;;;12.30;99.90;;;;;;5109412;28;20243;-75
2023/04/08 08:00:20;;;;;;;2.50;2.00;;;12.30;99.90;;;;;;5110198;28;20212;-75
2023/04/08 08:02:47;;;;;;;1.90;1.73;;;12.30;99.90;;;;;;5115189;28;20204;-75
2023/04/08 08:05:15;;;;;;;1.87;1.77;;;12.50;99.90;;;;;;5113902;28;20228;-78
2023/04/08 08:07:41;;;;;;;1.60;1.50;;;12.70;99.90;;;;;;5115216;28;20240;-79
2023/04/08 08:10:09;;;;;;;3.77;2.30;;;12.60;99.90;;;;;;5113672;28;20243;-74
2023/04/08 08:12:36;;;;;;;2.03;1.63;;;12.70;99.90;;;;;;5114864;28;20220;-79
2023/04/08 08:15:06;;;;;;;2.50;1.63;;;12.90;99.90;;;;;;5114550;28;20197;-78
2023/04/08 08:17:32;;;;;;;2.67;1.60;;;13.00;99.90;;;;;;5113667;28;20232;-76
2023/04/08 08:19:59;;;;;;;5.43;1.83;;;13.10;99.90;;;;;;5114000;28;20608;-74
2023/04/08 08:22:27;;;;;;;2.85;2.08;;;13.10;99.90;;;;;;5115368;27;20287;-76
2023/04/08 08:24:56;;;;;;;1.90;1.45;;;13.30;99.90;;;;;;5112790;28;20231;-76
2023/04/08 08:27:23;;;;;;;1.92;1.55;;;13.70;99.90;;;;;;5114668;28;20211;-77
2023/04/08 08:29:51;;;;;;;4.47;1.63;;;13.60;99.90;;;;;;5094417;28;20236;-75
2023/04/08 08:32:19;;;;;;;2.85;1.38;;;13.70;99.90;;;;;;5094343;28;20205;-76
2023/04/08 08:34:46;;;;;;;2.60;1.85;;;14.70;99.90;;;;;;5094346;28;20237;-82
2023/04/08 08:37:13;;;;;;;2.97;1.75;;;16.00;99.90;;;;;;5094665;28;20237;-82
2023/04/08 08:39:40;;;;;;;4.57;1.67;;;15.30;99.90;;;;;;5110556;28;20233;-78
2023/04/08 08:42:07;;;;;;;3.22;1.92;;;15.20;99.90;;;;;;5103273;28;20236;-80
2023/04/08 08:44:34;;;;;;;2.67;1.80;;;15.70;99.90;;;;;;5114823;28;20677;-77
2023/04/08 08:47:01;;;;;;;2.80;1.90;;;17.20;99.90;;;;;;5113785;28;20254;-79
2023/04/08 08:49:30;;;;;;;1.85;1.70;;;16.30;99.90;;;;;;5114465;28;20239;-78
2023/04/08 08:51:58;;;;;;;3.40;1.90;;;16.70;99.90;;;;;;5112452;28;20247;-74
2023/04/08 08:54:26;;;;;;;5.93;2.03;;;16.00;99.90;;;;;;5113670;28;20248;-78
2023/04/08 08:56:53;;;;;;;2.05;1.00;;;15.50;99.90;;;;;;5113917;28;20224;-78
2023/04/08 08:59:20;;;;;;;2.17;1.30;;;15.40;99.90;;;;;;5115367;27;20209;-77
2023/04/08 09:01:46;;;;;;;2.08;1.73;;;15.40;99.90;;;;;;5113331;28;20663;-74
2023/04/08 09:04:15;;;;;;;3.15;1.05;;;15.50;99.90;;;;;;5113667;28;20275;-76
2023/04/08 09:06:44;;;;;;;3.40;1.58;;;15.50;99.90;;;;;;5114230;28;20196;-78
2023/04/08 09:09:11;;;;;;;1.58;1.27;;;15.60;99.90;;;;;;5113588;28;20240;-76
2023/04/08 09:11:39;;;;;;;1.85;1.10;;;16.00;99.90;;;;;;5115504;27;20247;-79
2023/04/08 09:14:17;;;;;;;3.28;1.30;;;16.30;99.90;;;;;;5118925;27;20265;-78
2023/04/08 09:16:44;;;;;;;2.42;0.93;;;16.50;99.90;;;;;;5114011;28;20200;-82
2023/04/08 09:19:12;;;;;;;1.65;1.40;;;17.50;99.90;;;;;;5113385;28;20201;-74
2023/04/08 09:21:40;;;;;;;2.00;1.45;;;16.90;99.90;;;;;;5113657;28;20201;-76
2023/04/08 09:24:08;;;;;;;1.20;1.10;;;17.50;99.90;;;;;;5113771;28;20237;-78
2023/04/08 09:26:37;;;;;;;4.85;1.35;;;18.50;99.90;;;;;;5114193;28;20650;-76
2023/04/08 09:29:05;;;;;;;1.20;1.10;;;21.90;99.90;;;;;;5112307;28;20208;-77
2023/04/08 09:31:35;;;;;;;2.15;1.35;;;20.20;99.90;;;;;;5112995;28;20277;-80
2023/04/08 09:34:10;;;;;;;1.80;1.70;;;19.00;99.90;;;;;;5112960;28;20231;-78
2023/04/08 09:36:37;;;;;;;1.65;1.55;;;18.70;99.90;;;;;;5113650;28;20205;-80
2023/04/08 09:39:06;;;;;;;1.88;1.77;;;19.20;99.90;;;;;;5113316;28;20266;-78
2023/04/08 09:41:37;;;;;;;1.67;1.52;;;20.60;99.90;;;;;;5113589;28;20201;-77
2023/04/08 09:44:06;;;;;;;2.75;1.15;;;23.70;99.90;;;;;;5112891;28;20265;-79
2023/04/08 09:46:45;;;;;;;2.10;1.45;;;24.60;99.90;;;;;;5113618;28;20254;-78
2023/04/08 09:49:16;;;;;;;2.40;1.13;;;25.80;99.90;;;;;;5112451;28;20201;-75
2023/04/08 09:51:49;;;;;;;1.77;1.27;;;22.00;99.90;;;;;;5113408;28;20236;-76
2023/04/08 09:54:21;;;;;;;3.72;1.33;;;19.50;99.90;;;;;;5112764;28;20715;-75
2023/04/08 09:56:59;;;;;;;1.63;1.48;;;19.10;99.90;;;;;;5112421;28;20675;-75
2023/04/08 09:59:32;;;;;;;1.70;1.50;;;22.00;99.90;;;;;;5113095;28;20236;-75
2023/04/08 10:02:05;;;;;;;3.15;1.65;;;24.80;99.90;;;;;;5112407;28;20201;-77
2023/04/08 10:04:37;;;;;;;2.50;1.77;;;26.00;99.90;;;;;;5113414;28;20232;-76
2023/04/08 10:07:06;;;;;;;1.73;1.60;;;20.70;99.90;;;;;;5112769;28;20684;-76
2023/04/08 10:09:34;;;;;;;2.20;1.90;;;22.60;99.90;;;;;;5113053;28;20332;-76
2023/04/08 10:12:04;;;;;;;3.30;1.55;;;22.70;99.90;;;;;;5112285;28;20244;-76
2023/04/08 10:14:31;;;;;;;3.78;1.63;;;21.00;99.90;;;;;;5113029;28;20642;-78
2023/04/08 10:17:25;;;;;;;2.58;1.75;;;20.70;99.90;;;;;;5111825;28;20205;-77
2023/04/08 10:19:52;;;;;;;2.40;0.98;;;20.70;99.90;;;;;;5112302;28;20571;-76
2023/04/08 10:22:47;;;;;;;3.90;1.60;;;21.20;99.90;;;;;;5112300;28;20205;-76
2023/04/08 10:25:31;;;;;;;2.40;1.23;;;21.20;99.90;;;;;;5112017;28;20241;-76
2023/04/08 10:28:00;;;;;;;1.75;1.48;;;19.50;99.90;;;;;;5112209;28;20240;-76
2023/04/08 10:30:44;;;;;;;2.40;2.20;;;20.60;99.90;;;;;;5112258;28;20255;-74
2023/04/08 10:33:13;;;;;;;3.28;1.58;;;19.30;99.90;;;;;;5112523;28;20196;-75
2023/04/08 10:35:45;;;;;;;1.60;1.50;;;18.80;99.90;;;;;;5113013;28;20227;-74
2023/04/08 10:38:13;;;;;;;1.42;1.33;;;18.30;99.90;;;;;;5112265;28;20661;-75
2023/04/08 10:40:41;;;;;;;2.05;1.38;;;18.40;99.90;;;;;;5112253;28;20296;-75
2023/04/08 10:43:10;;;;;;;1.60;1.35;;;18.70;99.90;;;;;;5111866;28;20204;-73
2023/04/08 10:45:38;;;;;;;2.00;1.60;;;18.60;99.90;;;;;;5112061;28;20715;-75
2023/04/08 10:48:16;;;;;;;3.92;1.77;;;18.60;99.90;;;;;;5112031;28;20246;-77
2023/04/08 10:50:43;;;;;;;1.23;1.13;;;18.20;99.90;;;;;;5112345;28;20204;-75
2023/04/08 10:53:11;;;;;;;3.17;1.60;;;18.40;99.90;;;;;;5109953;28;20680;-74
2023/04/08 10:55:38;;;;;;;2.53;1.60;;;18.40;99.90;;;;;;5112286;28;20239;-76
2023/04/08 10:58:14;;;;;;;2.35;1.33;;;18.60;99.90;;;;;;5111892;28;20207;-76
2023/04/08 11:00:41;;;;;;;2.60;1.25;;;18.70;99.90;;;;;;5112110;28;20713;-75
2023/04/08 11:03:09;;;;;;;1.60;1.50;;;18.70;99.90;;;;;;5112124;28;20212;-75
2023/04/08 11:05:37;;;;;;;2.60;1.55;;;18.80;99.90;;;;;;5109883;28;20339;-74
2023/04/08 11:08:04;;;;;;;1.38;1.25;;;18.90;99.90;;;;;;5111163;28;20877;-73
2023/04/08 11:10:37;;;;;;;1.50;1.08;;;19.00;99.90;;;;;;5111630;28;20213;-74
2023/04/08 11:13:07;;;;;;;6.15;2.20;;;18.90;99.90;;;;;;5111298;28;20244;-73
2023/04/08 11:15:36;;;;;;;2.00;1.40;;;19.30;99.90;;;;;;5111236;28;20200;-74
2023/04/08 11:18:12;;;;;;;3.33;1.42;;;19.50;99.90;;;;;;5111335;28;20248;-80
2023/04/08 11:20:39;;;;;;;1.60;1.23;;;19.40;99.90;;;;;;5110710;28;20232;-73
2023/04/08 11:23:12;;;;;;;2.00;1.10;;;19.20;99.90;;;;;;5110268;28;20205;-73
2023/04/08 11:25:40;;;;;;;1.80;1.02;;;19.40;99.90;;;;;;5100988;28;20232;-74
2023/04/08 11:28:07;;;;;;;2.08;1.50;;;19.50;99.90;;;;;;5111090;27;20205;-73
2023/04/08 11:30:36;;;;;;;1.13;1.02;;;19.50;99.90;;;;;;5117357;27;20667;-73
2023/04/08 11:33:03;;;;;;;1.75;1.38;;;19.50;99.90;;;;;;5118266;27;20618;-71
2023/04/08 11:35:30;;;;;;;1.75;1.45;;;19.40;99.90;;;;;;5111532;27;20664;-72
2023/04/08 11:37:58;;;;;;;1.88;1.35;;;19.30;99.90;;;;;;5111164;28;20244;-72
2023/04/08 11:40:26;;;;;;;1.50;1.40;;;19.30;99.90;;;;;;5111539;28;20201;-72
2023/04/08 11:42:53;;;;;;;3.53;1.48;;;19.30;99.90;;;;;;5111120;28;20208;-72
2023/04/08 11:45:21;;;;;;;2.47;2.28;;;18.90;99.90;;;;;;5110865;28;20352;-72
2023/04/08 11:47:50;;;;;;;2.53;1.70;;;19.20;99.90;;;;;;5111395;28;20201;-71
2023/04/08 11:50:23;;;;;;;1.73;1.40;;;19.30;99.90;;;;;;5110842;28;20248;-72
2023/04/08 11:52:51;;;;;;;1.42;1.27;;;19.40;99.90;;;;;;5111175;28;20197;-71
2023/04/08 11:55:25;;;;;;;1.40;1.30;;;19.50;99.90;;;;;;5110895;28;20232;-72
2023/04/08 11:57:52;;;;;;;2.67;1.38;;;19.60;99.90;;;;;;5110956;28;20258;-72
2023/04/08 12:00:20;;;;;;;3.15;1.52;;;19.40;99.90;;;;;;5110808;28;20212;-71
2023/04/08 12:02:47;;;;;;;1.48;1.38;;;19.40;99.90;;;;;;5110356;28;20240;-71
2023/04/08 12:05:16;;;;;;;1.50;1.35;;;19.90;99.90;;;;;;5110475;28;20231;-72
2023/04/08 12:07:44;;;;;;;4.35;1.30;;;20.00;99.90;;;;;;5111539;28;20228;-72
2023/04/08 12:10:12;;;;;;;3.85;1.35;;;19.80;99.90;;;;;;5108816;28;20584;-72
2023/04/08 12:12:39;;;;;;;5.30;1.67;;;19.90;99.90;;;;;;5110254;28;20205;-73
2023/04/08 12:15:07;;;;;;;3.15;1.48;;;19.90;99.90;;;;;;5110635;28;20208;-73
2023/04/08 12:17:35;;;;;;;1.75;1.23;;;19.80;99.90;;;;;;5111275;28;20232;-72
2023/04/08 12:20:03;;;;;;;2.53;1.33;;;19.70;99.90;;;;;;5110532;28;20240;-71
2023/04/08 12:22:31;;;;;;;2.13;1.65;;;19.80;99.90;;;;;;5110650;28;20295;-73
2023/04/08 12:24:58;;;;;;;1.30;1.20;;;19.70;99.90;;;;;;5108611;28;20211;-73
2023/04/08 12:27:25;;;;;;;1.30;1.20;;;19.90;99.90;;;;;;5107951;28;20234;-75
2023/04/08 12:29:52;;;;;;;2.65;1.83;;;19.90;99.90;;;;;;5110083;28;20725;-72
2023/04/08 12:32:19;;;;;;;2.40;1.42;;;20.00;99.90;;;;;;5110563;28;20229;-76
2023/04/08 12:34:46;;;;;;;1.98;1.42;;;20.10;99.90;;;;;;5109159;28;20362;-72
2023/04/08 12:37:13;;;;;;;1.48;1.30;;;20.00;99.90;;;;;;5110258;28;20244;-73
2023/04/08 12:39:41;;;;;;;1.88;1.10;;;19.90;99.90;;;;;;5110407;28;20236;-75
2023/04/08 12:42:08;;;;;;;5.15;1.85;;;20.00;99.90;;;;;;5110172;28;20236;-73
2023/04/08 12:44:35;;;;;;;1.38;1.00;;;20.10;99.90;;;;;;5110856;28;20236;-74
2023/04/08 12:47:02;;;;;;;3.15;1.17;;;20.20;99.90;;;;;;5111511;27;20246;-74
2023/04/08 12:49:29;;;;;;;1.50;0.80;;;20.30;99.90;;;;;;5113964;27;20251;-72
2023/04/08 12:51:56;;;;;;;1.90;1.15;;;20.20;99.90;;;;;;5114024;28;20204;-73
2023/04/08 12:54:23;;;;;;;1.27;0.90;;;20.20;99.90;;;;;;5114253;28;20212;-74
2023/04/08 12:56:51;;;;;;;1.42;1.00;;;20.30;99.90;;;;;;5114495;28;20675;-76
2023/04/08 12:59:18;;;;;;;1.63;0.90;;;20.00;99.90;;;;;;5112037;28;20749;-76